Airfield :
LOGIN :

Register | Disclaimer

   EN    FR    IT 

 










Legend :    VFR   Marginal VFR   IFR   Intensive IFR   Very Intensive IFR
Visi :
Ceiling :
>= 8 km
>= 3000ft
5 to 8 km
1000 to 3000 ft
1500m to 5 km
500 to 1000 ft
800 to 1500m
200 to 500 ft
< 800m
< 200 ft
Symbols :   Thunderstorms  Fog  Heavy snow  Heavy precipitations  Wind > 20 kt
SIGMETs :     Misc.  Thunderstorms  Icing  Turbulence  Mountain Waves  Volcanic Ashes







- Airport Elevation : 580 ft
- Download approach charts


LFOA - Avord

CURRENT METAR :
  • 171700Z AUTO 28012KT CAVOK 25/16 Q1019 NOSIG

EXPIRED METARs :
  • 171630Z AUTO 27012KT CAVOK 25/17 Q1019 NOSIG
  • 171600Z AUTO 28011KT 240V300 CAVOK 25/17 Q1019 NOSIG
  • 171530Z AUTO 28013KT 9999 FEW040 SCT240 25/17 Q1019 NOSIG
  • 171500Z AUTO 27012KT 9999 BKN039 BKN240 25/17 Q1019 NOSIG
  • 171430Z AUTO 27013KT 9999 BKN039 BKN045 BKN220 26/17 Q1019 NOSIG

TAF TAF LFOA
Valid from the 17 at 15:00 until the 18 at 15:00 UTC


171400Z 1715/1815 25010KT 9999 BKN040
BECMG 1806/1808 4000 RA BKN008 BKN015TCU
PROB30
TEMPO 1810/1815 2500 SHRA BKN020CB
No reported NOTAMs for that airfield.



MET'MAP, your aeronautical weather chart ! - Copyright ORBIFLY December 2007 - Disclaimer

ORBIFLY MET'MAP TEAM :

Programming & Development : Alexandra Zaïnal
Concept & Development : Baudouin d'Aumeries
Co-Development & Prog : Marc-Olivier Méhu
Technical & hardware support : Manuel Goepfert

Contact : metmap@orbifly.com




SOURCES & CREDITS :

   NOAA